Time;durP1;ratioP1;P1;durP2;ratioP2;P2;SDS_P1;SDS_P2;PMS_P1;PMS_P2;Temp;Humidity;BMP_temperature;BMP_pressure;BME280_temperature;BME280_humidity;BME280_pressure;Samples;Min_cycle;Max_cycle;Signal;HPM_P1;HPM_P2
2023/06/28 00:02:20;;;;;;;4.17;3.73;;;13.90;99.90;;;;;;5032969;28;20943;-64
2023/06/28 00:04:47;;;;;;;4.17;2.97;;;14.00;99.90;;;;;;5032953;28;20473;-63
2023/06/28 00:07:14;;;;;;;3.77;2.83;;;13.90;99.90;;;;;;5033446;28;20449;-63
2023/06/28 00:09:41;;;;;;;12.57;3.20;;;13.90;99.90;;;;;;5033203;28;20445;-64
2023/06/28 00:12:08;;;;;;;6.67;4.00;;;13.90;99.90;;;;;;5032812;28;20931;-64
2023/06/28 00:14:35;;;;;;;6.80;2.83;;;13.90;99.90;;;;;;5032965;28;20819;-63
2023/06/28 00:17:02;;;;;;;5.90;2.70;;;13.90;99.90;;;;;;5033156;28;20845;-64
2023/06/28 00:19:30;;;;;;;8.07;3.20;;;13.80;99.90;;;;;;5033173;28;20821;-64
2023/06/28 00:21:57;;;;;;;5.27;3.07;;;13.80;99.90;;;;;;5032943;28;20820;-63
2023/06/28 00:24:24;;;;;;;6.57;3.53;;;13.80;99.90;;;;;;5033508;28;20473;-64
2023/06/28 00:26:51;;;;;;;7.00;3.10;;;13.80;99.90;;;;;;5033789;28;20452;-63
2023/06/28 00:29:18;;;;;;;5.80;2.87;;;13.80;99.90;;;;;;5037038;28;20440;-64
2023/06/28 00:31:44;;;;;;;7.00;3.17;;;13.80;99.90;;;;;;5036763;28;20452;-63
2023/06/28 00:34:11;;;;;;;5.67;4.23;;;13.70;99.90;;;;;;5037311;28;20464;-64
2023/06/28 00:36:39;;;;;;;6.47;2.70;;;13.70;99.90;;;;;;5036934;28;20485;-63
2023/06/28 00:39:06;;;;;;;5.23;3.37;;;13.70;99.90;;;;;;5036974;28;20448;-65
2023/06/28 00:41:33;;;;;;;5.13;3.53;;;13.60;99.90;;;;;;5037023;28;20441;-63
2023/06/28 00:44:00;;;;;;;3.50;3.20;;;13.60;99.90;;;;;;5036766;28;20465;-64
2023/06/28 00:46:26;;;;;;;5.03;2.93;;;13.50;99.90;;;;;;5036571;28;20441;-63
2023/06/28 00:48:53;;;;;;;5.57;3.30;;;13.50;99.90;;;;;;5036324;28;20943;-63
2023/06/28 00:51:22;;;;;;;6.60;2.90;;;13.50;99.90;;;;;;5036415;28;21028;-63
2023/06/28 00:53:50;;;;;;;8.40;3.53;;;13.40;99.90;;;;;;5036582;28;20464;-63
2023/06/28 00:56:17;;;;;;;4.93;2.90;;;13.40;99.90;;;;;;5036305;28;20958;-63
2023/06/28 00:58:44;;;;;;;7.23;3.00;;;13.40;99.90;;;;;;5036875;28;20470;-63
2023/06/28 01:01:11;;;;;;;6.23;3.60;;;13.30;99.90;;;;;;5036025;28;20456;-62
2023/06/28 01:03:38;;;;;;;4.53;3.20;;;13.30;99.90;;;;;;5036350;28;20518;-63
2023/06/28 01:06:05;;;;;;;6.80;4.07;;;13.30;99.90;;;;;;5036099;28;20799;-63
2023/06/28 01:08:32;;;;;;;8.73;3.50;;;13.20;99.90;;;;;;5036306;28;20445;-63
2023/06/28 01:11:01;;;;;;;8.43;3.50;;;13.20;99.90;;;;;;5036288;28;20818;-64
2023/06/28 01:13:28;;;;;;;9.00;3.50;;;13.20;99.90;;;;;;5035879;28;20481;-63
2023/06/28 01:15:55;;;;;;;6.30;3.37;;;13.20;99.90;;;;;;5036157;28;20440;-63
2023/06/28 01:18:23;;;;;;;7.80;3.40;;;13.20;99.90;;;;;;5035607;28;20998;-63
2023/06/28 01:20:54;;;;;;;4.20;3.00;;;13.20;99.90;;;;;;5036051;28;20445;-63
2023/06/28 01:23:25;;;;;;;6.30;4.00;;;13.20;99.90;;;;;;5035839;28;21001;-64
2023/06/28 01:25:52;;;;;;;9.30;3.60;;;13.10;99.90;;;;;;5035859;28;20444;-63
2023/06/28 01:28:20;;;;;;;7.00;3.73;;;13.20;99.90;;;;;;5035880;28;20440;-63
2023/06/28 01:30:48;;;;;;;6.07;3.17;;;13.20;99.90;;;;;;5035820;28;20511;-63
2023/06/28 01:33:15;;;;;;;4.43;3.87;;;13.20;99.90;;;;;;5035625;28;20495;-64
2023/06/28 01:35:42;;;;;;;7.63;3.80;;;13.20;99.90;;;;;;5035834;28;20453;-63
2023/06/28 01:38:10;;;;;;;5.07;3.30;;;13.20;99.90;;;;;;5035314;28;20480;-63
2023/06/28 01:40:39;;;;;;;9.13;3.30;;;13.20;99.90;;;;;;5035367;28;20944;-63
2023/06/28 01:43:06;;;;;;;6.83;3.50;;;13.20;99.90;;;;;;5037197;28;20445;-64
2023/06/28 01:45:33;;;;;;;9.10;3.90;;;13.20;99.90;;;;;;5035922;28;20445;-62
2023/06/28 01:48:01;;;;;;;3.60;3.07;;;13.20;99.90;;;;;;5035673;28;20432;-63
2023/06/28 01:50:28;;;;;;;6.47;3.10;;;13.20;99.90;;;;;;5035469;28;20448;-63
2023/06/28 01:53:01;;;;;;;6.83;3.60;;;13.20;99.90;;;;;;5035087;28;20962;-64
2023/06/28 01:55:29;;;;;;;8.07;3.13;;;13.20;99.90;;;;;;5035188;28;20425;-63
2023/06/28 01:57:57;;;;;;;8.30;3.50;;;13.20;99.90;;;;;;5034915;28;20959;-63
2023/06/28 02:00:24;;;;;;;6.10;2.90;;;13.20;99.90;;;;;;5035304;28;20445;-63
2023/06/28 02:02:52;;;;;;;6.80;4.47;;;13.30;99.90;;;;;;5035891;28;20441;-63
2023/06/28 02:05:20;;;;;;;3.70;3.23;;;13.30;99.90;;;;;;5035188;28;20441;-63
2023/06/28 02:07:47;;;;;;;7.30;3.70;;;13.30;99.90;;;;;;5035128;28;20449;-63
2023/06/28 02:10:13;;;;;;;5.30;3.17;;;13.30;99.90;;;;;;5035172;28;20444;-63
2023/06/28 02:12:40;;;;;;;8.87;4.00;;;13.30;99.90;;;;;;5034679;28;20958;-63
2023/06/28 02:15:10;;;;;;;5.40;3.67;;;13.30;99.90;;;;;;5034576;28;20480;-63
2023/06/28 02:17:36;;;;;;;10.43;3.20;;;13.30;99.90;;;;;;5034599;28;20484;-63
2023/06/28 02:20:05;;;;;;;5.73;2.93;;;13.30;99.90;;;;;;5034941;28;20444;-63
2023/06/28 02:22:32;;;;;;;7.53;3.20;;;13.30;99.90;;;;;;5034857;28;20449;-63
2023/06/28 02:24:59;;;;;;;3.73;3.10;;;13.30;99.90;;;;;;5034820;28;20465;-63
2023/06/28 02:27:26;;;;;;;6.70;4.47;;;13.30;99.90;;;;;;5035531;28;20437;-63
2023/06/28 02:29:52;;;;;;;8.40;3.60;;;13.30;99.90;;;;;;5034670;28;20453;-63
2023/06/28 02:32:21;;;;;;;4.93;3.50;;;13.20;99.90;;;;;;5034383;28;20931;-63
2023/06/28 02:34:47;;;;;;;5.20;3.73;;;13.30;99.90;;;;;;5034232;28;20469;-63
2023/06/28 02:37:14;;;;;;;8.17;4.03;;;13.30;99.90;;;;;;5034517;28;20488;-63
2023/06/28 02:39:41;;;;;;;7.77;3.67;;;13.20;99.90;;;;;;5034608;28;20445;-63
2023/06/28 02:42:08;;;;;;;6.80;5.10;;;13.20;99.90;;;;;;5034196;28;20441;-63
2023/06/28 02:44:35;;;;;;;5.77;3.33;;;13.20;99.90;;;;;;5034446;28;20468;-64
2023/06/28 02:47:02;;;;;;;5.37;3.53;;;13.10;99.90;;;;;;5034230;28;20445;-63
2023/06/28 02:49:30;;;;;;;7.50;3.67;;;13.10;99.90;;;;;;5034574;28;20464;-65
2023/06/28 02:51:57;;;;;;;3.97;3.50;;;13.10;99.90;;;;;;5033604;28;20449;-63
2023/06/28 02:54:24;;;;;;;5.70;3.47;;;13.10;99.90;;;;;;5034139;28;20515;-63
2023/06/28 02:56:51;;;;;;;7.90;4.10;;;13.10;99.90;;;;;;5034075;28;20441;-63
2023/06/28 02:59:17;;;;;;;4.47;3.90;;;13.10;99.90;;;;;;5034150;28;20452;-64
2023/06/28 03:01:44;;;;;;;6.80;4.20;;;13.10;99.90;;;;;;5034043;28;20821;-63
2023/06/28 03:04:12;;;;;;;9.00;3.40;;;13.10;99.90;;;;;;5033993;28;20468;-62
2023/06/28 03:06:41;;;;;;;6.33;4.40;;;13.20;99.90;;;;;;5033989;28;20864;-64
2023/06/28 03:09:07;;;;;;;6.53;3.40;;;13.20;99.90;;;;;;5034095;28;20441;-63
2023/06/28 03:11:34;;;;;;;6.80;3.37;;;13.20;99.90;;;;;;5033574;28;20804;-63
2023/06/28 03:14:01;;;;;;;6.47;3.80;;;13.20;99.90;;;;;;5033530;28;20477;-63
2023/06/28 03:16:28;;;;;;;5.20;3.77;;;13.20;99.90;;;;;;5033483;28;20536;-64
2023/06/28 03:18:55;;;;;;;6.50;3.90;;;13.20;99.90;;;;;;5033745;28;20480;-62
2023/06/28 03:21:22;;;;;;;5.40;4.20;;;13.20;99.90;;;;;;5033837;28;20849;-63
2023/06/28 03:23:50;;;;;;;4.83;4.10;;;13.20;99.90;;;;;;5033759;28;20465;-63
2023/06/28 03:26:17;;;;;;;7.23;3.67;;;13.20;99.90;;;;;;5033642;28;20440;-63
2023/06/28 03:28:44;;;;;;;5.43;4.03;;;13.30;99.90;;;;;;5034206;28;20522;-63
2023/06/28 03:31:10;;;;;;;7.23;3.70;;;13.30;99.90;;;;;;5033303;28;20458;-64
2023/06/28 03:33:37;;;;;;;5.37;4.03;;;13.30;99.90;;;;;;5036145;28;20814;-62
2023/06/28 03:36:04;;;;;;;6.87;4.30;;;13.30;99.90;;;;;;5033185;28;20973;-63
2023/06/28 03:38:31;;;;;;;8.40;3.40;;;13.40;99.90;;;;;;5033061;28;20481;-63
2023/06/28 03:40:59;;;;;;;6.80;4.90;;;13.40;99.90;;;;;;5033405;28;20449;-63
2023/06/28 03:43:25;;;;;;;5.83;3.60;;;13.40;99.90;;;;;;5033820;28;20461;-63
2023/06/28 03:45:52;;;;;;;4.20;3.43;;;13.50;99.90;;;;;;5033097;28;20449;-62
2023/06/28 03:48:19;;;;;;;7.27;3.30;;;13.50;99.90;;;;;;5033077;28;20448;-63
2023/06/28 03:50:46;;;;;;;6.47;3.77;;;13.50;99.90;;;;;;5033326;28;20528;-63
2023/06/28 03:53:13;;;;;;;5.93;4.13;;;13.50;99.90;;;;;;5033437;28;20471;-64
2023/06/28 03:55:39;;;;;;;6.00;3.57;;;13.50;99.90;;;;;;5033287;28;20445;-63
2023/06/28 03:58:07;;;;;;;7.87;3.87;;;13.60;99.90;;;;;;5032516;28;20998;-63
2023/06/28 04:00:34;;;;;;;4.47;3.23;;;13.60;99.90;;;;;;5032738;28;20833;-63
2023/06/28 04:03:02;;;;;;;4.60;3.47;;;13.80;99.90;;;;;;5032577;28;20449;-64
2023/06/28 04:05:29;;;;;;;6.83;4.10;;;14.10;99.90;;;;;;5033029;28;20475;-63
2023/06/28 04:07:57;;;;;;;11.60;3.50;;;14.50;99.90;;;;;;5032981;28;20450;-63
2023/06/28 04:11:55;;;;;;;6.43;3.60;;;15.00;99.90;;;;;;5173525;27;20552;-62
2023/06/28 04:14:23;;;;;;;8.73;4.37;;;15.40;99.90;;;;;;5173545;27;20465;-63
2023/06/28 04:16:50;;;;;;;4.27;2.70;;;15.70;99.90;;;;;;5172777;27;20438;-62
2023/06/28 04:19:16;;;;;;;6.47;3.00;;;16.00;99.90;;;;;;5172481;27;20445;-63
2023/06/28 04:21:43;;;;;;;7.47;3.00;;;16.10;99.90;;;;;;5172684;27;20431;-63
2023/06/28 04:24:10;;;;;;;4.20;2.67;;;16.30;99.90;;;;;;5172608;27;20462;-63
2023/06/28 04:26:37;;;;;;;3.90;2.97;;;16.40;99.90;;;;;;5172422;27;20435;-63
2023/06/28 04:29:05;;;;;;;7.13;3.13;;;16.40;99.90;;;;;;5172621;27;20435;-63
2023/06/28 04:31:32;;;;;;;5.20;2.70;;;16.50;99.90;;;;;;5173074;27;20482;-63
2023/06/28 04:33:59;;;;;;;6.20;3.37;;;16.60;99.90;;;;;;5172378;27;20478;-63
2023/06/28 04:36:26;;;;;;;5.67;2.80;;;16.70;99.90;;;;;;5172380;27;20447;-62
2023/06/28 04:38:54;;;;;;;4.23;2.23;;;16.90;99.90;;;;;;5172074;27;20932;-62
2023/06/28 04:41:22;;;;;;;3.40;2.63;;;17.00;99.90;;;;;;5172044;27;20437;-62
2023/06/28 04:43:49;;;;;;;6.43;2.57;;;17.20;99.90;;;;;;5172348;27;20455;-62
2023/06/28 04:46:17;;;;;;;9.00;3.43;;;17.40;99.90;;;;;;5173221;27;20495;-62
2023/06/28 04:48:44;;;;;;;3.43;2.93;;;17.60;99.90;;;;;;5172284;27;20434;-62
2023/06/28 04:51:11;;;;;;;4.50;2.60;;;17.70;99.90;;;;;;5172123;27;20626;-62
2023/06/28 04:53:38;;;;;;;4.80;2.63;;;17.80;99.90;;;;;;5172195;27;20458;-63
2023/06/28 04:56:05;;;;;;;11.57;3.10;;;17.90;99.70;;;;;;5172528;27;20508;-63
2023/06/28 04:58:33;;;;;;;4.73;3.10;;;18.00;99.10;;;;;;5172254;27;20939;-62
2023/06/28 05:01:01;;;;;;;6.47;2.60;;;18.20;98.60;;;;;;5171716;27;20427;-62
2023/06/28 05:03:30;;;;;;;3.50;2.40;;;18.30;97.80;;;;;;5171971;27;20550;-62
2023/06/28 05:05:56;;;;;;;4.10;2.57;;;18.50;97.00;;;;;;5172055;27;20436;-61
2023/06/28 05:08:23;;;;;;;8.30;2.50;;;18.80;96.50;;;;;;5172423;27;20441;-61
2023/06/28 05:10:50;;;;;;;3.50;2.50;;;19.10;94.90;;;;;;5171417;27;20487;-61
2023/06/28 05:13:18;;;;;;;5.73;2.67;;;19.30;93.50;;;;;;5171538;27;20462;-62
2023/06/28 05:15:44;;;;;;;3.00;2.53;;;19.40;92.50;;;;;;5171636;27;20485;-62
2023/06/28 05:18:11;;;;;;;5.40;2.37;;;19.50;91.80;;;;;;5171541;27;20448;-62
2023/06/28 05:20:39;;;;;;;6.40;2.33;;;19.50;90.70;;;;;;5171237;27;20809;-62
2023/06/28 05:23:10;;;;;;;5.23;2.17;;;19.50;90.40;;;;;;5161177;27;20443;-62
2023/06/28 05:25:37;;;;;;;4.67;2.23;;;19.60;90.00;;;;;;5157946;27;20443;-62
2023/06/28 05:28:05;;;;;;;7.57;2.80;;;19.70;89.10;;;;;;5157694;27;20785;-61
2023/06/28 05:30:32;;;;;;;12.90;2.90;;;19.90;88.00;;;;;;5157636;27;20471;-61
2023/06/28 05:33:02;;;;;;;4.43;2.70;;;20.00;85.40;;;;;;5158004;27;20433;-62
2023/06/28 05:35:29;;;;;;;6.50;2.33;;;19.90;83.90;;;;;;5157948;27;20448;-62
2023/06/28 05:37:57;;;;;;;4.53;2.40;;;19.70;84.40;;;;;;5157535;27;20539;-62
2023/06/28 05:40:24;;;;;;;2.90;2.40;;;19.60;85.20;;;;;;5157639;27;20436;-62
2023/06/28 05:42:51;;;;;;;5.63;2.80;;;19.50;84.60;;;;;;5158090;27;20435;-62
2023/06/28 05:45:18;;;;;;;5.53;2.53;;;19.50;84.90;;;;;;5157420;27;20547;-62
2023/06/28 05:47:45;;;;;;;8.50;2.73;;;19.40;84.20;;;;;;5157568;27;20791;-62
2023/06/28 05:50:12;;;;;;;6.13;2.80;;;19.30;84.60;;;;;;5157653;27;20440;-62
2023/06/28 05:52:39;;;;;;;6.50;3.10;;;19.20;85.20;;;;;;5157502;27;20451;-62
2023/06/28 05:55:08;;;;;;;3.80;2.83;;;19.20;85.80;;;;;;5157059;27;20973;-62
2023/06/28 05:57:35;;;;;;;6.87;2.63;;;19.40;86.00;;;;;;5157231;27;20448;-62
2023/06/28 06:00:02;;;;;;;3.57;2.30;;;19.50;84.90;;;;;;5156868;27;20454;-61
2023/06/28 06:02:28;;;;;;;6.50;3.10;;;19.70;85.00;;;;;;5157422;27;20442;-63
2023/06/28 06:04:55;;;;;;;4.60;2.27;;;19.70;84.00;;;;;;5157354;27;20471;-63
2023/06/28 06:07:22;;;;;;;4.20;2.63;;;19.70;83.50;;;;;;5157412;27;20440;-61
2023/06/28 06:09:49;;;;;;;7.90;3.30;;;19.70;83.70;;;;;;5156537;27;20542;-61
2023/06/28 06:12:18;;;;;;;8.90;3.20;;;19.70;84.10;;;;;;5156675;27;20456;-63
2023/06/28 06:14:45;;;;;;;6.50;3.00;;;19.60;84.10;;;;;;5156846;27;20461;-62
2023/06/28 06:17:12;;;;;;;8.20;3.53;;;19.40;84.10;;;;;;5156144;27;20467;-62
2023/06/28 06:19:38;;;;;;;5.70;2.50;;;19.10;86.10;;;;;;5156668;27;20448;-64
2023/06/28 06:22:06;;;;;;;7.80;2.60;;;19.00;87.60;;;;;;5156763;27;20435;-62
2023/06/28 06:24:32;;;;;;;3.80;2.33;;;19.00;88.40;;;;;;5156573;27;20458;-62
2023/06/28 06:26:59;;;;;;;4.80;2.50;;;18.90;88.70;;;;;;5156152;27;20447;-61
2023/06/28 06:29:27;;;;;;;6.70;3.13;;;19.00;89.30;;;;;;5156321;27;20936;-63
2023/06/28 06:31:54;;;;;;;10.17;2.70;;;18.90;89.10;;;;;;5156338;27;20473;-63
2023/06/28 06:34:21;;;;;;;6.83;2.93;;;18.90;89.20;;;;;;5155665;27;20465;-62
2023/06/28 06:36:48;;;;;;;5.30;2.83;;;18.90;89.60;;;;;;5156649;27;20451;-63
2023/06/28 06:39:15;;;;;;;6.50;2.23;;;18.90;89.80;;;;;;5157359;27;20958;-62
2023/06/28 06:41:41;;;;;;;4.30;2.50;;;18.90;89.70;;;;;;5156454;27;20448;-61
2023/06/28 06:44:08;;;;;;;6.40;2.70;;;18.90;89.50;;;;;;5156418;27;20469;-63
2023/06/28 06:46:36;;;;;;;4.00;2.50;;;18.80;89.50;;;;;;5156463;27;20451;-62
2023/06/28 06:49:03;;;;;;;5.10;3.50;;;18.80;89.80;;;;;;5156217;27;20496;-61
2023/06/28 06:51:30;;;;;;;6.87;2.90;;;18.70;90.00;;;;;;5156096;27;20467;-63
2023/06/28 06:53:57;;;;;;;8.40;3.27;;;18.70;90.10;;;;;;5155838;27;20471;-63
2023/06/28 06:56:24;;;;;;;3.40;2.30;;;18.70;90.10;;;;;;5156261;27;20813;-62
2023/06/28 06:58:50;;;;;;;6.17;2.43;;;18.70;90.40;;;;;;5156740;27;20450;-61
2023/06/28 07:01:17;;;;;;;3.83;2.63;;;18.80;90.20;;;;;;5155785;27;20941;-61
2023/06/28 07:03:45;;;;;;;7.13;3.00;;;18.80;90.00;;;;;;5156579;27;20475;-61
2023/06/28 07:06:12;;;;;;;7.60;3.17;;;18.90;90.10;;;;;;5157198;27;20952;-62
2023/06/28 07:08:39;;;;;;;6.13;3.17;;;19.10;90.00;;;;;;5156290;27;20443;-62
2023/06/28 07:11:06;;;;;;;8.03;2.27;;;19.20;89.10;;;;;;5155963;27;20480;-62
2023/06/28 07:13:32;;;;;;;5.03;1.97;;;19.30;88.20;;;;;;5159694;27;20873;-62
2023/06/28 07:15:59;;;;;;;6.10;2.80;;;19.20;87.40;;;;;;5155412;27;20909;-61
2023/06/28 07:18:26;;;;;;;4.07;2.50;;;19.10;87.30;;;;;;5155267;27;20451;-58
2023/06/28 07:20:54;;;;;;;6.93;2.80;;;19.10;88.10;;;;;;5155329;27;20955;-59
2023/06/28 07:23:21;;;;;;;5.00;2.20;;;19.10;87.80;;;;;;5155405;27;20460;-60
2023/06/28 07:25:48;;;;;;;2.80;2.10;;;19.10;87.10;;;;;;5155071;27;20879;-61
2023/06/28 07:28:14;;;;;;;3.43;1.67;;;19.10;85.50;;;;;;5155208;27;20784;-63
2023/06/28 07:30:54;;;;;;;2.70;1.60;;;19.10;84.80;;;;;;5154758;27;20439;-61
2023/06/28 07:33:22;;;;;;;4.53;1.60;;;19.30;83.70;;;;;;5155216;27;20460;-60
2023/06/28 07:35:49;;;;;;;3.40;1.80;;;19.40;82.40;;;;;;5155467;27;20993;-61
2023/06/28 07:38:18;;;;;;;4.50;1.80;;;19.50;81.00;;;;;;5155154;27;20444;-62
2023/06/28 07:40:45;;;;;;;3.67;2.00;;;19.50;79.80;;;;;;5154882;27;20451;-63
2023/06/28 07:43:12;;;;;;;3.73;2.60;;;19.50;79.00;;;;;;5155206;27;20920;-60
2023/06/28 07:45:40;;;;;;;6.40;2.30;;;19.50;78.40;;;;;;5154560;27;20450;-61
2023/06/28 07:48:07;;;;;;;7.27;2.00;;;19.50;78.20;;;;;;5154407;27;20979;-63
2023/06/28 07:50:34;;;;;;;4.20;2.07;;;19.60;78.00;;;;;;5154521;27;20952;-57
2023/06/28 07:53:00;;;;;;;3.67;1.60;;;19.70;77.00;;;;;;5154460;27;20447;-58
2023/06/28 07:55:29;;;;;;;3.47;1.70;;;19.70;76.30;;;;;;5154597;27;20443;-62
2023/06/28 07:57:56;;;;;;;1.97;1.30;;;19.80;75.10;;;;;;5154715;27;20546;-62
2023/06/28 08:00:23;;;;;;;7.90;1.90;;;19.80;73.40;;;;;;5154415;27;20431;-62
2023/06/28 08:02:50;;;;;;;3.83;2.30;;;19.90;72.40;;;;;;5154675;27;20443;-59
2023/06/28 08:05:17;;;;;;;2.40;1.30;;;20.00;71.50;;;;;;5154565;27;20460;-59
2023/06/28 08:07:44;;;;;;;3.03;1.47;;;20.10;70.10;;;;;;5154670;27;20569;-59
2023/06/28 08:10:11;;;;;;;2.63;1.30;;;20.20;68.60;;;;;;5154583;27;20455;-58
2023/06/28 08:12:39;;;;;;;2.73;1.37;;;20.40;66.80;;;;;;5154352;27;20995;-58
2023/06/28 08:15:07;;;;;;;2.00;1.30;;;20.40;65.40;;;;;;5154492;27;20455;-61
2023/06/28 08:17:33;;;;;;;2.57;1.37;;;20.40;65.00;;;;;;5154858;27;20439;-62
2023/06/28 08:20:00;;;;;;;4.13;1.70;;;20.50;64.70;;;;;;5154717;27;20459;-61
2023/06/28 08:22:27;;;;;;;4.60;1.30;;;20.50;63.90;;;;;;5155140;27;20522;-62
2023/06/28 08:24:54;;;;;;;3.10;1.30;;;20.60;62.90;;;;;;5154644;27;20464;-62
2023/06/28 08:27:21;;;;;;;4.87;1.60;;;20.60;62.70;;;;;;5154332;27;20542;-61
2023/06/28 08:29:49;;;;;;;3.87;1.50;;;20.70;62.60;;;;;;5154571;27;20526;-61
2023/06/28 08:32:16;;;;;;;3.23;1.20;;;20.80;62.10;;;;;;5154321;27;20471;-60
2023/06/28 08:34:42;;;;;;;2.77;1.50;;;20.90;61.40;;;;;;5154361;27;20452;-61
2023/06/28 08:37:09;;;;;;;5.70;1.60;;;20.90;60.50;;;;;;5154336;27;20519;-63
2023/06/28 08:39:36;;;;;;;7.43;1.70;;;20.90;60.60;;;;;;5154345;27;20437;-62
2023/06/28 08:42:04;;;;;;;1.83;1.10;;;20.80;60.30;;;;;;5154511;27;20432;-62
2023/06/28 08:44:33;;;;;;;4.53;1.77;;;20.90;60.10;;;;;;5154986;27;20456;-63
2023/06/28 08:47:02;;;;;;;3.50;1.70;;;21.00;58.90;;;;;;5154573;27;20448;-62
2023/06/28 08:49:29;;;;;;;2.13;1.30;;;21.10;58.10;;;;;;5154248;27;20432;-61
2023/06/28 08:51:56;;;;;;;3.10;2.20;;;21.20;58.30;;;;;;5153984;27;20822;-61
2023/06/28 08:54:27;;;;;;;2.40;1.53;;;21.20;57.40;;;;;;5154420;27;20463;-58
2023/06/28 08:56:56;;;;;;;1.77;1.50;;;21.30;57.40;;;;;;5155242;27;20469;-59
2023/06/28 08:59:23;;;;;;;2.90;1.60;;;21.30;57.20;;;;;;5158440;27;20480;-58
2023/06/28 09:01:54;;;;;;;5.43;1.47;;;21.30;57.70;;;;;;5157971;27;20440;-59
2023/06/28 09:04:23;;;;;;;3.73;1.50;;;21.40;56.20;;;;;;5158338;27;20554;-60
2023/06/28 09:06:51;;;;;;;3.90;1.50;;;21.50;55.80;;;;;;5161037;27;20444;-61
2023/06/28 09:09:19;;;;;;;3.03;1.50;;;21.60;55.10;;;;;;5158005;27;20443;-62
2023/06/28 09:11:46;;;;;;;2.43;1.30;;;21.60;54.70;;;;;;5157831;27;20488;-62
2023/06/28 09:14:13;;;;;;;4.60;2.10;;;21.60;54.40;;;;;;5158493;27;20514;-63
2023/06/28 09:16:40;;;;;;;3.63;1.30;;;21.60;54.60;;;;;;5157875;27;20963;-63
2023/06/28 09:19:07;;;;;;;3.20;1.43;;;21.70;54.50;;;;;;5158224;27;20435;-63
2023/06/28 09:21:35;;;;;;;3.53;1.50;;;21.90;54.20;;;;;;5157881;27;20435;-62
2023/06/28 09:24:02;;;;;;;2.70;1.10;;;21.90;54.10;;;;;;5158043;27;20463;-62
2023/06/28 09:26:33;;;;;;;3.33;1.50;;;21.90;54.40;;;;;;5158160;27;20450;-60
2023/06/28 09:29:01;;;;;;;3.20;1.60;;;22.00;54.50;;;;;;5159176;27;20444;-64
2023/06/28 09:31:32;;;;;;;2.37;1.20;;;22.10;53.40;;;;;;5157647;27;20558;-63
2023/06/28 09:33:58;;;;;;;1.60;1.30;;;22.00;52.70;;;;;;5158168;27;20465;-62
2023/06/28 09:36:25;;;;;;;1.50;1.13;;;22.10;52.70;;;;;;5158063;27;20901;-62
2023/06/28 09:38:57;;;;;;;4.07;1.30;;;22.10;52.40;;;;;;5157459;27;20890;-62
2023/06/28 09:41:24;;;;;;;3.13;1.40;;;22.10;52.40;;;;;;5158062;27;20859;-63
2023/06/28 09:43:51;;;;;;;1.93;1.20;;;22.20;52.20;;;;;;5157663;27;21004;-63
2023/06/28 09:46:18;;;;;;;3.63;1.70;;;22.20;52.50;;;;;;5158074;27;20437;-63
2023/06/28 09:48:48;;;;;;;4.37;1.50;;;22.30;52.70;;;;;;5158473;27;20447;-63
2023/06/28 09:51:17;;;;;;;2.90;1.40;;;22.40;52.50;;;;;;5158174;27;20446;-62
2023/06/28 09:53:52;;;;;;;4.20;1.70;;;22.50;52.20;;;;;;5158191;27;20462;-63
2023/06/28 09:56:20;;;;;;;3.27;1.20;;;22.50;52.00;;;;;;5158056;27;20454;-61
2023/06/28 09:58:48;;;;;;;3.70;1.87;;;22.60;52.00;;;;;;5158322;27;20442;-62
2023/06/28 10:01:16;;;;;;;2.53;1.40;;;22.70;51.90;;;;;;5158618;27;20458;-63
2023/06/28 10:03:45;;;;;;;2.70;1.33;;;23.00;51.90;;;;;;5157418;27;20462;-62
2023/06/28 10:06:12;;;;;;;1.80;1.33;;;23.00;51.80;;;;;;5157688;27;20541;-62
2023/06/28 10:08:39;;;;;;;5.47;1.97;;;22.90;51.60;;;;;;5157640;27;20444;-60
2023/06/28 10:11:13;;;;;;;3.73;1.50;;;22.70;51.60;;;;;;5156920;27;20465;-62
2023/06/28 10:13:43;;;;;;;2.77;1.47;;;22.70;52.20;;;;;;5169212;22;20489;-60
2023/06/28 10:16:14;;;;;;;3.33;1.73;;;22.90;51.70;;;;;;5075034;28;20431;-62
2023/06/28 10:18:43;;;;;;;2.50;1.53;;;23.40;51.50;;;;;;5074716;28;20442;-61
2023/06/28 10:21:11;;;;;;;5.50;1.90;;;23.80;51.00;;;;;;5074677;28;20891;-60
2023/06/28 10:23:54;;;;;;;2.70;1.70;;;24.20;50.40;;;;;;5081740;28;20444;-56
2023/06/28 10:26:22;;;;;;;4.30;2.40;;;24.10;49.80;;;;;;5075015;28;20525;-61
2023/06/28 10:28:51;;;;;;;5.20;2.07;;;23.90;50.10;;;;;;5075139;28;20444;-61
2023/06/28 10:31:18;;;;;;;4.10;1.40;;;23.80;50.50;;;;;;5075028;28;20547;-60
2023/06/28 10:33:46;;;;;;;4.13;1.70;;;23.90;50.70;;;;;;5074639;28;20483;-61
2023/06/28 10:36:13;;;;;;;4.17;1.73;;;24.00;50.40;;;;;;5074499;28;20448;-60
2023/06/28 10:38:43;;;;;;;6.53;3.33;;;24.00;50.10;;;;;;5074514;28;20777;-60
2023/06/28 10:41:13;;;;;;;2.40;1.73;;;24.00;49.40;;;;;;5074322;28;20501;-61
2023/06/28 10:43:40;;;;;;;3.83;2.20;;;24.10;48.80;;;;;;5074309;28;20444;-61
2023/06/28 10:46:23;;;;;;;2.30;1.70;;;24.30;48.60;;;;;;5074529;28;20450;-60
2023/06/28 10:48:53;;;;;;;3.70;1.97;;;24.30;48.40;;;;;;5074995;28;20420;-60
2023/06/28 10:51:21;;;;;;;3.50;2.23;;;24.40;48.80;;;;;;5076354;28;20445;-60
2023/06/28 10:53:52;;;;;;;2.53;2.13;;;24.20;49.40;;;;;;5081758;28;20502;-57
2023/06/28 10:56:20;;;;;;;2.23;1.93;;;24.00;50.10;;;;;;5075043;28;20508;-60
2023/06/28 11:01:57;;;;;;;3.90;2.00;;;23.70;51.30;;;;;;5054934;28;20463;-60
2023/06/28 11:04:26;;;;;;;4.53;2.10;;;23.50;51.70;;;;;;5075826;28;20456;-58
2023/06/28 11:07:15;;;;;;;4.00;1.53;;;23.50;51.60;;;;;;5074267;28;20438;-60
2023/06/28 11:10:14;;;;;;;2.70;1.73;;;23.70;50.80;;;;;;5074726;28;20431;-60
2023/06/28 11:12:41;;;;;;;2.33;1.33;;;24.20;49.60;;;;;;5074584;28;20478;-60
2023/06/28 11:15:08;;;;;;;2.97;2.17;;;24.50;48.50;;;;;;5075907;28;20490;-59
2023/06/28 11:17:36;;;;;;;2.47;1.97;;;24.70;47.90;;;;;;5074475;28;20452;-61
2023/06/28 11:20:07;;;;;;;2.40;1.50;;;24.70;48.00;;;;;;5076871;28;20436;-61
2023/06/28 11:22:49;;;;;;;1.97;1.77;;;24.50;48.20;;;;;;5075981;28;20442;-61
2023/06/28 11:25:16;;;;;;;2.47;1.43;;;24.50;48.30;;;;;;5076453;28;20459;-61
2023/06/28 11:27:43;;;;;;;2.57;1.60;;;24.50;48.00;;;;;;5076082;28;20451;-62
2023/06/28 11:30:11;;;;;;;3.40;2.10;;;24.40;47.40;;;;;;5074311;28;20783;-62
2023/06/28 11:32:40;;;;;;;3.27;1.70;;;24.20;47.20;;;;;;5075703;28;20515;-60
2023/06/28 11:35:08;;;;;;;4.10;1.83;;;24.00;47.80;;;;;;5077638;28;20486;-64
2023/06/28 11:37:36;;;;;;;3.33;2.10;;;23.90;48.40;;;;;;5075149;28;20470;-60
2023/06/28 11:40:04;;;;;;;3.00;2.33;;;23.80;48.70;;;;;;5075893;28;20440;-60
2023/06/28 11:42:31;;;;;;;2.53;2.07;;;23.80;48.60;;;;;;5078356;28;20933;-61
2023/06/28 11:44:58;;;;;;;2.40;1.63;;;24.00;48.20;;;;;;5076058;28;20467;-59
2023/06/28 11:47:24;;;;;;;3.43;1.63;;;24.20;47.30;;;;;;5075634;28;20447;-60
2023/06/28 11:49:53;;;;;;;2.10;1.53;;;24.40;46.80;;;;;;5074688;28;20450;-60
2023/06/28 11:52:21;;;;;;;3.23;1.60;;;24.60;46.40;;;;;;5074259;28;20472;-60
2023/06/28 11:54:48;;;;;;;3.43;1.90;;;24.90;46.00;;;;;;5074533;28;20806;-60
2023/06/28 11:57:14;;;;;;;2.93;1.63;;;25.40;45.30;;;;;;5075291;28;20452;-58
2023/06/28 11:59:44;;;;;;;2.67;1.47;;;26.00;44.30;;;;;;5075714;28;20461;-61
2023/06/28 12:02:11;;;;;;;4.27;2.03;;;26.60;42.90;;;;;;5076167;28;20461;-60
2023/06/28 12:04:40;;;;;;;2.13;1.90;;;27.10;42.10;;;;;;5077105;28;20458;-61
2023/06/28 12:07:08;;;;;;;2.37;1.67;;;26.90;42.30;;;;;;5075608;28;21035;-59
2023/06/28 12:09:36;;;;;;;3.10;2.10;;;26.20;43.30;;;;;;5075418;28;20534;-60
2023/06/28 12:12:05;;;;;;;5.50;2.30;;;25.70;44.30;;;;;;5074199;28;20448;-59
2023/06/28 12:14:39;;;;;;;2.60;1.93;;;25.30;45.30;;;;;;5076149;28;20501;-60
2023/06/28 12:17:06;;;;;;;1.87;1.67;;;25.50;45.60;;;;;;5075573;28;20449;-59
2023/06/28 12:19:35;;;;;;;3.07;2.37;;;25.70;44.50;;;;;;5075588;28;20450;-59
2023/06/28 12:22:02;;;;;;;3.10;1.90;;;25.80;44.20;;;;;;5074209;28;20449;-60
2023/06/28 12:24:34;;;;;;;2.83;1.70;;;25.90;43.60;;;;;;5074129;28;20473;-60
2023/06/28 12:27:02;;;;;;;5.57;2.10;;;26.00;43.50;;;;;;5073908;28;20428;-59
2023/06/28 12:29:31;;;;;;;4.40;1.90;;;26.70;42.70;;;;;;5074784;28;20498;-61
2023/06/28 12:32:03;;;;;;;2.87;1.57;;;27.70;41.50;;;;;;5076402;28;20449;-60
2023/06/28 12:34:31;;;;;;;3.40;1.60;;;28.50;39.90;;;;;;5079984;28;20825;-60
2023/06/28 12:36:59;;;;;;;3.20;1.70;;;28.90;38.80;;;;;;5080421;28;20438;-60
2023/06/28 12:39:47;;;;;;;3.00;2.00;;;29.10;38.00;;;;;;5083648;28;20442;-60
2023/06/28 12:42:21;;;;;;;3.60;1.50;;;29.00;37.80;;;;;;5080139;28;20537;-61
2023/06/28 12:44:50;;;;;;;2.97;1.67;;;28.70;38.10;;;;;;5080149;28;20476;-61
2023/06/28 12:47:17;;;;;;;1.60;1.40;;;28.20;38.90;;;;;;5079135;28;20550;-61
2023/06/28 12:49:44;;;;;;;1.80;1.43;;;27.70;39.60;;;;;;5078683;28;20442;-62
2023/06/28 12:52:11;;;;;;;2.10;1.57;;;27.20;40.50;;;;;;5081814;28;20443;-62
2023/06/28 12:54:38;;;;;;;2.17;1.60;;;26.60;41.10;;;;;;5078587;28;20472;-61